sensor_id;sensor_type;location;lat;lon;timestamp;P1;durP1;ratioP1;P2;durP2;ratioP2
69047;SDS011;56119;50.118;8.642;2023-06-26T00:01:51;10.65;;;7.97;;
69047;SDS011;56119;50.118;8.642;2023-06-26T00:04:17;13.05;;;8.27;;
69047;SDS011;56119;50.118;8.642;2023-06-26T00:06:42;9.75;;;7.45;;
69047;SDS011;56119;50.118;8.642;2023-06-26T00:09:08;9.88;;;7.05;;
69047;SDS011;56119;50.118;8.642;2023-06-26T00:11:34;9.07;;;7.00;;
69047;SDS011;56119;50.118;8.642;2023-06-26T00:14:00;8.77;;;6.95;;
69047;SDS011;56119;50.118;8.642;2023-06-26T00:16:26;13.95;;;7.45;;
69047;SDS011;56119;50.118;8.642;2023-06-26T00:18:53;10.18;;;7.60;;
69047;SDS011;56119;50.118;8.642;2023-06-26T00:21:19;10.13;;;7.90;;
69047;SDS011;56119;50.118;8.642;2023-06-26T00:23:45;10.10;;;7.78;;
69047;SDS011;56119;50.118;8.642;2023-06-26T00:26:11;11.68;;;7.78;;
69047;SDS011;56119;50.118;8.642;2023-06-26T00:28:37;9.38;;;6.88;;
69047;SDS011;56119;50.118;8.642;2023-06-26T00:31:03;8.57;;;6.93;;
69047;SDS011;56119;50.118;8.642;2023-06-26T00:33:29;9.82;;;7.97;;
69047;SDS011;56119;50.118;8.642;2023-06-26T00:35:55;9.38;;;7.35;;
69047;SDS011;56119;50.118;8.642;2023-06-26T00:38:21;10.02;;;7.28;;
69047;SDS011;56119;50.118;8.642;2023-06-26T00:40:47;11.18;;;7.57;;
69047;SDS011;56119;50.118;8.642;2023-06-26T00:43:13;8.95;;;7.43;;
69047;SDS011;56119;50.118;8.642;2023-06-26T00:45:40;10.95;;;8.10;;
69047;SDS011;56119;50.118;8.642;2023-06-26T00:48:05;8.98;;;7.97;;
69047;SDS011;56119;50.118;8.642;2023-06-26T00:50:31;9.85;;;6.38;;
69047;SDS011;56119;50.118;8.642;2023-06-26T00:52:57;9.95;;;8.00;;
69047;SDS011;56119;50.118;8.642;2023-06-26T00:55:26;10.48;;;7.75;;
69047;SDS011;56119;50.118;8.642;2023-06-26T00:57:52;9.85;;;7.55;;
69047;SDS011;56119;50.118;8.642;2023-06-26T01:00:18;8.98;;;7.72;;
69047;SDS011;56119;50.118;8.642;2023-06-26T01:02:44;13.75;;;8.18;;
69047;SDS011;56119;50.118;8.642;2023-06-26T01:05:11;9.00;;;7.45;;
69047;SDS011;56119;50.118;8.642;2023-06-26T01:07:38;9.02;;;7.43;;
69047;SDS011;56119;50.118;8.642;2023-06-26T01:10:07;9.50;;;7.50;;
69047;SDS011;56119;50.118;8.642;2023-06-26T01:12:33;8.38;;;6.65;;
69047;SDS011;56119;50.118;8.642;2023-06-26T01:14:59;9.35;;;7.38;;
69047;SDS011;56119;50.118;8.642;2023-06-26T01:17:28;8.82;;;7.45;;
69047;SDS011;56119;50.118;8.642;2023-06-26T01:20:00;9.68;;;7.70;;
69047;SDS011;56119;50.118;8.642;2023-06-26T01:25:13;10.13;;;7.90;;
69047;SDS011;56119;50.118;8.642;2023-06-26T01:27:44;8.60;;;6.72;;
69047;SDS011;56119;50.118;8.642;2023-06-26T01:30:10;8.98;;;7.60;;
69047;SDS011;56119;50.118;8.642;2023-06-26T01:32:36;11.52;;;8.52;;
69047;SDS011;56119;50.118;8.642;2023-06-26T01:35:04;9.88;;;8.10;;
69047;SDS011;56119;50.118;8.642;2023-06-26T01:37:31;9.80;;;7.47;;
69047;SDS011;56119;50.118;8.642;2023-06-26T01:39:57;8.77;;;7.40;;
69047;SDS011;56119;50.118;8.642;2023-06-26T01:42:23;9.63;;;8.15;;
69047;SDS011;56119;50.118;8.642;2023-06-26T01:44:49;8.77;;;6.97;;
69047;SDS011;56119;50.118;8.642;2023-06-26T01:47:19;9.18;;;7.43;;
69047;SDS011;56119;50.118;8.642;2023-06-26T01:49:49;10.85;;;7.97;;
69047;SDS011;56119;50.118;8.642;2023-06-26T01:52:27;10.23;;;7.05;;
69047;SDS011;56119;50.118;8.642;2023-06-26T01:57:23;11.52;;;7.65;;
69047;SDS011;56119;50.118;8.642;2023-06-26T01:59:52;7.60;;;6.80;;
69047;SDS011;56119;50.118;8.642;2023-06-26T02:02:19;9.07;;;7.57;;
69047;SDS011;56119;50.118;8.642;2023-06-26T02:04:45;8.98;;;7.50;;
69047;SDS011;56119;50.118;8.642;2023-06-26T02:07:13;9.73;;;7.78;;
69047;SDS011;56119;50.118;8.642;2023-06-26T02:09:39;9.75;;;8.15;;
69047;SDS011;56119;50.118;8.642;2023-06-26T02:12:05;9.13;;;7.78;;
69047;SDS011;56119;50.118;8.642;2023-06-26T02:14:31;10.40;;;8.30;;
69047;SDS011;56119;50.118;8.642;2023-06-26T02:16:57;9.98;;;7.30;;
69047;SDS011;56119;50.118;8.642;2023-06-26T02:19:23;9.18;;;7.95;;
69047;SDS011;56119;50.118;8.642;2023-06-26T02:21:50;9.80;;;8.30;;
69047;SDS011;56119;50.118;8.642;2023-06-26T02:24:16;9.63;;;8.10;;
69047;SDS011;56119;50.118;8.642;2023-06-26T02:26:42;9.32;;;8.18;;
69047;SDS011;56119;50.118;8.642;2023-06-26T02:29:08;9.65;;;7.95;;
69047;SDS011;56119;50.118;8.642;2023-06-26T02:31:34;9.10;;;7.45;;
69047;SDS011;56119;50.118;8.642;2023-06-26T02:34:00;10.35;;;8.10;;
69047;SDS011;56119;50.118;8.642;2023-06-26T02:36:26;10.18;;;8.13;;
69047;SDS011;56119;50.118;8.642;2023-06-26T02:38:51;9.93;;;8.27;;
69047;SDS011;56119;50.118;8.642;2023-06-26T02:41:17;9.13;;;8.10;;
69047;SDS011;56119;50.118;8.642;2023-06-26T02:43:43;10.43;;;8.52;;
69047;SDS011;56119;50.118;8.642;2023-06-26T02:46:09;9.80;;;8.10;;
69047;SDS011;56119;50.118;8.642;2023-06-26T02:48:35;9.75;;;8.73;;
69047;SDS011;56119;50.118;8.642;2023-06-26T02:51:01;9.73;;;7.90;;
69047;SDS011;56119;50.118;8.642;2023-06-26T02:53:27;9.90;;;8.60;;
69047;SDS011;56119;50.118;8.642;2023-06-26T02:55:53;9.75;;;7.95;;
69047;SDS011;56119;50.118;8.642;2023-06-26T02:58:19;9.70;;;8.57;;
69047;SDS011;56119;50.118;8.642;2023-06-26T03:00:45;9.52;;;8.25;;
69047;SDS011;56119;50.118;8.642;2023-06-26T03:03:12;9.73;;;7.95;;
69047;SDS011;56119;50.118;8.642;2023-06-26T03:05:38;10.70;;;8.73;;
69047;SDS011;56119;50.118;8.642;2023-06-26T03:08:04;10.73;;;8.30;;
69047;SDS011;56119;50.118;8.642;2023-06-26T03:10:30;9.40;;;8.13;;
69047;SDS011;56119;50.118;8.642;2023-06-26T03:12:56;10.15;;;7.50;;
69047;SDS011;56119;50.118;8.642;2023-06-26T03:15:22;8.35;;;7.22;;
69047;SDS011;56119;50.118;8.642;2023-06-26T03:17:48;11.57;;;8.57;;
69047;SDS011;56119;50.118;8.642;2023-06-26T03:20:14;9.90;;;8.23;;
69047;SDS011;56119;50.118;8.642;2023-06-26T03:22:40;13.00;;;7.88;;
69047;SDS011;56119;50.118;8.642;2023-06-26T03:25:06;11.27;;;8.07;;
69047;SDS011;56119;50.118;8.642;2023-06-26T03:27:32;9.88;;;8.27;;
69047;SDS011;56119;50.118;8.642;2023-06-26T03:29:58;10.65;;;8.88;;
69047;SDS011;56119;50.118;8.642;2023-06-26T03:32:24;10.07;;;8.43;;
69047;SDS011;56119;50.118;8.642;2023-06-26T03:34:50;10.48;;;8.15;;
69047;SDS011;56119;50.118;8.642;2023-06-26T03:37:18;9.98;;;7.57;;
69047;SDS011;56119;50.118;8.642;2023-06-26T03:39:44;10.85;;;9.13;;
69047;SDS011;56119;50.118;8.642;2023-06-26T03:42:10;10.48;;;9.38;;
69047;SDS011;56119;50.118;8.642;2023-06-26T03:44:36;13.45;;;8.80;;
69047;SDS011;56119;50.118;8.642;2023-06-26T03:47:02;11.52;;;9.32;;
69047;SDS011;56119;50.118;8.642;2023-06-26T03:49:28;12.60;;;8.57;;
69047;SDS011;56119;50.118;8.642;2023-06-26T03:51:53;11.55;;;9.43;;
69047;SDS011;56119;50.118;8.642;2023-06-26T03:54:19;8.82;;;7.75;;
69047;SDS011;56119;50.118;8.642;2023-06-26T03:56:45;10.35;;;8.43;;
69047;SDS011;56119;50.118;8.642;2023-06-26T03:59:11;12.02;;;8.70;;
69047;SDS011;56119;50.118;8.642;2023-06-26T04:01:37;10.45;;;8.70;;
69047;SDS011;56119;50.118;8.642;2023-06-26T04:04:03;10.77;;;8.05;;
69047;SDS011;56119;50.118;8.642;2023-06-26T04:06:29;11.20;;;9.07;;
69047;SDS011;56119;50.118;8.642;2023-06-26T04:08:56;11.40;;;8.32;;
69047;SDS011;56119;50.118;8.642;2023-06-26T04:11:22;10.98;;;8.75;;
69047;SDS011;56119;50.118;8.642;2023-06-26T04:13:49;10.05;;;7.82;;
69047;SDS011;56119;50.118;8.642;2023-06-26T04:16:15;9.00;;;7.35;;
69047;SDS011;56119;50.118;8.642;2023-06-26T04:18:41;10.80;;;8.35;;
69047;SDS011;56119;50.118;8.642;2023-06-26T04:21:08;11.40;;;8.77;;
69047;SDS011;56119;50.118;8.642;2023-06-26T04:23:34;11.95;;;8.15;;
69047;SDS011;56119;50.118;8.642;2023-06-26T04:26:00;11.40;;;8.18;;
69047;SDS011;56119;50.118;8.642;2023-06-26T04:28:27;13.95;;;8.80;;
69047;SDS011;56119;50.118;8.642;2023-06-26T04:30:54;11.38;;;8.85;;
69047;SDS011;56119;50.118;8.642;2023-06-26T04:33:19;12.10;;;9.10;;
69047;SDS011;56119;50.118;8.642;2023-06-26T04:35:45;13.40;;;9.40;;
69047;SDS011;56119;50.118;8.642;2023-06-26T04:38:14;10.15;;;8.32;;
69047;SDS011;56119;50.118;8.642;2023-06-26T04:40:40;12.00;;;8.60;;
69047;SDS011;56119;50.118;8.642;2023-06-26T04:43:06;10.73;;;9.07;;
69047;SDS011;56119;50.118;8.642;2023-06-26T04:45:32;12.27;;;8.90;;
69047;SDS011;56119;50.118;8.642;2023-06-26T04:47:58;11.82;;;9.63;;
69047;SDS011;56119;50.118;8.642;2023-06-26T04:50:25;13.75;;;9.18;;
69047;SDS011;56119;50.118;8.642;2023-06-26T04:52:51;12.05;;;9.82;;
69047;SDS011;56119;50.118;8.642;2023-06-26T04:55:17;12.00;;;9.38;;
69047;SDS011;56119;50.118;8.642;2023-06-26T04:57:43;13.27;;;9.25;;
69047;SDS011;56119;50.118;8.642;2023-06-26T05:00:09;12.70;;;10.23;;
69047;SDS011;56119;50.118;8.642;2023-06-26T05:02:36;9.88;;;8.88;;
69047;SDS011;56119;50.118;8.642;2023-06-26T05:05:02;12.88;;;9.15;;
69047;SDS011;56119;50.118;8.642;2023-06-26T05:07:28;12.77;;;8.93;;
69047;SDS011;56119;50.118;8.642;2023-06-26T05:09:54;9.30;;;8.30;;
69047;SDS011;56119;50.118;8.642;2023-06-26T05:12:20;12.75;;;9.32;;
69047;SDS011;56119;50.118;8.642;2023-06-26T05:14:46;8.93;;;7.72;;
69047;SDS011;56119;50.118;8.642;2023-06-26T05:17:15;10.85;;;7.70;;
69047;SDS011;56119;50.118;8.642;2023-06-26T05:19:41;11.30;;;7.85;;
69047;SDS011;56119;50.118;8.642;2023-06-26T05:22:08;9.52;;;7.75;;
69047;SDS011;56119;50.118;8.642;2023-06-26T05:24:37;9.65;;;7.68;;
69047;SDS011;56119;50.118;8.642;2023-06-26T05:27:04;16.45;;;8.13;;
69047;SDS011;56119;50.118;8.642;2023-06-26T05:29:30;10.75;;;8.10;;
69047;SDS011;56119;50.118;8.642;2023-06-26T05:31:56;10.55;;;7.90;;
69047;SDS011;56119;50.118;8.642;2023-06-26T05:34:23;10.68;;;8.48;;
69047;SDS011;56119;50.118;8.642;2023-06-26T05:36:50;11.48;;;8.38;;
69047;SDS011;56119;50.118;8.642;2023-06-26T05:39:17;12.27;;;8.18;;
69047;SDS011;56119;50.118;8.642;2023-06-26T05:41:43;14.32;;;9.52;;
69047;SDS011;56119;50.118;8.642;2023-06-26T05:44:09;13.73;;;9.85;;
69047;SDS011;56119;50.118;8.642;2023-06-26T05:46:35;11.50;;;9.55;;
69047;SDS011;56119;50.118;8.642;2023-06-26T05:49:02;12.63;;;8.55;;
69047;SDS011;56119;50.118;8.642;2023-06-26T05:51:28;13.43;;;10.68;;
69047;SDS011;56119;50.118;8.642;2023-06-26T05:53:54;12.73;;;10.35;;
69047;SDS011;56119;50.118;8.642;2023-06-26T05:56:21;11.68;;;9.82;;
69047;SDS011;56119;50.118;8.642;2023-06-26T05:58:47;14.50;;;10.70;;
69047;SDS011;56119;50.118;8.642;2023-06-26T06:01:13;15.52;;;10.43;;
69047;SDS011;56119;50.118;8.642;2023-06-26T06:03:39;13.75;;;10.63;;
69047;SDS011;56119;50.118;8.642;2023-06-26T06:06:05;13.40;;;10.60;;
69047;SDS011;56119;50.118;8.642;2023-06-26T06:08:32;16.58;;;11.57;;
69047;SDS011;56119;50.118;8.642;2023-06-26T06:10:59;16.23;;;13.25;;
69047;SDS011;56119;50.118;8.642;2023-06-26T06:13:26;13.23;;;10.63;;
69047;SDS011;56119;50.118;8.642;2023-06-26T06:15:52;14.05;;;11.32;;
69047;SDS011;56119;50.118;8.642;2023-06-26T06:18:18;13.88;;;11.20;;
69047;SDS011;56119;50.118;8.642;2023-06-26T06:20:44;14.85;;;11.07;;
69047;SDS011;56119;50.118;8.642;2023-06-26T06:23:10;12.13;;;10.32;;
69047;SDS011;56119;50.118;8.642;2023-06-26T06:25:36;12.57;;;10.63;;
69047;SDS011;56119;50.118;8.642;2023-06-26T06:28:03;12.43;;;11.13;;
69047;SDS011;56119;50.118;8.642;2023-06-26T06:30:29;13.57;;;10.70;;
69047;SDS011;56119;50.118;8.642;2023-06-26T06:32:55;12.05;;;10.25;;
69047;SDS011;56119;50.118;8.642;2023-06-26T06:35:21;12.15;;;8.57;;
69047;SDS011;56119;50.118;8.642;2023-06-26T06:37:47;14.45;;;9.95;;
69047;SDS011;56119;50.118;8.642;2023-06-26T06:40:13;11.98;;;8.57;;
69047;SDS011;56119;50.118;8.642;2023-06-26T06:42:39;12.52;;;9.18;;
69047;SDS011;56119;50.118;8.642;2023-06-26T06:45:06;10.05;;;7.63;;
69047;SDS011;56119;50.118;8.642;2023-06-26T06:47:32;9.75;;;7.95;;
69047;SDS011;56119;50.118;8.642;2023-06-26T06:49:59;11.20;;;8.13;;
69047;SDS011;56119;50.118;8.642;2023-06-26T06:52:32;8.52;;;7.38;;
69047;SDS011;56119;50.118;8.642;2023-06-26T06:54:58;8.40;;;7.50;;
69047;SDS011;56119;50.118;8.642;2023-06-26T06:57:24;10.13;;;8.15;;
69047;SDS011;56119;50.118;8.642;2023-06-26T06:59:50;9.48;;;7.00;;
69047;SDS011;56119;50.118;8.642;2023-06-26T07:02:17;11.48;;;8.00;;
69047;SDS011;56119;50.118;8.642;2023-06-26T07:04:43;11.07;;;8.27;;
69047;SDS011;56119;50.118;8.642;2023-06-26T07:07:09;9.07;;;7.00;;
69047;SDS011;56119;50.118;8.642;2023-06-26T07:09:35;9.02;;;7.07;;
69047;SDS011;56119;50.118;8.642;2023-06-26T07:12:01;10.85;;;8.27;;
69047;SDS011;56119;50.118;8.642;2023-06-26T07:14:28;11.43;;;8.73;;
69047;SDS011;56119;50.118;8.642;2023-06-26T07:16:53;9.68;;;7.93;;
69047;SDS011;56119;50.118;8.642;2023-06-26T07:19:19;10.73;;;7.53;;
69047;SDS011;56119;50.118;8.642;2023-06-26T07:21:45;10.45;;;8.55;;
69047;SDS011;56119;50.118;8.642;2023-06-26T07:24:12;9.73;;;7.90;;
69047;SDS011;56119;50.118;8.642;2023-06-26T07:26:38;11.07;;;7.43;;
69047;SDS011;56119;50.118;8.642;2023-06-26T07:29:04;10.32;;;8.55;;
69047;SDS011;56119;50.118;8.642;2023-06-26T07:31:30;10.10;;;7.93;;
69047;SDS011;56119;50.118;8.642;2023-06-26T07:33:56;14.88;;;10.30;;
69047;SDS011;56119;50.118;8.642;2023-06-26T07:36:22;10.55;;;9.00;;
69047;SDS011;56119;50.118;8.642;2023-06-26T07:38:48;14.68;;;7.50;;
69047;SDS011;56119;50.118;8.642;2023-06-26T07:41:14;10.38;;;6.95;;
69047;SDS011;56119;50.118;8.642;2023-06-26T07:43:40;8.80;;;7.53;;
69047;SDS011;56119;50.118;8.642;2023-06-26T07:46:06;8.57;;;7.20;;
69047;SDS011;56119;50.118;8.642;2023-06-26T07:48:31;11.10;;;6.63;;
69047;SDS011;56119;50.118;8.642;2023-06-26T07:50:57;8.98;;;7.85;;
69047;SDS011;56119;50.118;8.642;2023-06-26T07:53:23;8.63;;;7.15;;
69047;SDS011;56119;50.118;8.642;2023-06-26T07:55:49;9.82;;;6.75;;
69047;SDS011;56119;50.118;8.642;2023-06-26T07:58:15;11.50;;;7.32;;
69047;SDS011;56119;50.118;8.642;2023-06-26T08:00:41;9.65;;;7.55;;
69047;SDS011;56119;50.118;8.642;2023-06-26T08:03:07;10.90;;;7.47;;
69047;SDS011;56119;50.118;8.642;2023-06-26T08:05:33;7.65;;;6.40;;
69047;SDS011;56119;50.118;8.642;2023-06-26T08:07:59;9.68;;;7.15;;
69047;SDS011;56119;50.118;8.642;2023-06-26T08:10:27;9.43;;;6.85;;
69047;SDS011;56119;50.118;8.642;2023-06-26T08:12:53;9.20;;;7.47;;
69047;SDS011;56119;50.118;8.642;2023-06-26T08:15:19;9.13;;;7.13;;
69047;SDS011;56119;50.118;8.642;2023-06-26T08:17:45;10.60;;;7.22;;
69047;SDS011;56119;50.118;8.642;2023-06-26T08:20:11;10.00;;;7.40;;
69047;SDS011;56119;50.118;8.642;2023-06-26T08:22:37;10.40;;;7.68;;
69047;SDS011;56119;50.118;8.642;2023-06-26T08:25:03;9.18;;;7.07;;
69047;SDS011;56119;50.118;8.642;2023-06-26T08:27:30;9.60;;;8.32;;
69047;SDS011;56119;50.118;8.642;2023-06-26T08:29:56;8.32;;;7.28;;
69047;SDS011;56119;50.118;8.642;2023-06-26T08:32:22;14.43;;;7.40;;
69047;SDS011;56119;50.118;8.642;2023-06-26T08:34:48;8.80;;;7.40;;
69047;SDS011;56119;50.118;8.642;2023-06-26T08:37:15;9.65;;;6.30;;
69047;SDS011;56119;50.118;8.642;2023-06-26T08:39:41;8.77;;;6.65;;
69047;SDS011;56119;50.118;8.642;2023-06-26T08:42:07;8.48;;;7.65;;
69047;SDS011;56119;50.118;8.642;2023-06-26T08:44:33;13.07;;;7.75;;
69047;SDS011;56119;50.118;8.642;2023-06-26T08:47:00;9.73;;;6.93;;
69047;SDS011;56119;50.118;8.642;2023-06-26T08:52:00;10.15;;;6.70;;
69047;SDS011;56119;50.118;8.642;2023-06-26T08:54:28;9.90;;;6.85;;
69047;SDS011;56119;50.118;8.642;2023-06-26T08:56:56;8.98;;;5.97;;
69047;SDS011;56119;50.118;8.642;2023-06-26T08:59:23;8.60;;;6.75;;
69047;SDS011;56119;50.118;8.642;2023-06-26T09:01:49;9.65;;;7.88;;
69047;SDS011;56119;50.118;8.642;2023-06-26T09:04:15;11.68;;;7.43;;
69047;SDS011;56119;50.118;8.642;2023-06-26T09:06:41;9.30;;;7.00;;
69047;SDS011;56119;50.118;8.642;2023-06-26T09:09:07;9.98;;;7.55;;
69047;SDS011;56119;50.118;8.642;2023-06-26T09:11:35;8.65;;;6.55;;
69047;SDS011;56119;50.118;8.642;2023-06-26T09:14:01;8.43;;;6.50;;
69047;SDS011;56119;50.118;8.642;2023-06-26T09:16:30;8.50;;;6.75;;
69047;SDS011;56119;50.118;8.642;2023-06-26T09:18:56;10.02;;;7.50;;
69047;SDS011;56119;50.118;8.642;2023-06-26T09:21:22;13.68;;;7.22;;
69047;SDS011;56119;50.118;8.642;2023-06-26T09:23:49;7.25;;;5.97;;
69047;SDS011;56119;50.118;8.642;2023-06-26T09:26:15;6.57;;;5.88;;
69047;SDS011;56119;50.118;8.642;2023-06-26T09:28:42;8.07;;;6.82;;
69047;SDS011;56119;50.118;8.642;2023-06-26T09:31:08;11.15;;;6.75;;
69047;SDS011;56119;50.118;8.642;2023-06-26T09:33:35;8.07;;;5.20;;
69047;SDS011;56119;50.118;8.642;2023-06-26T09:36:02;8.38;;;6.38;;
69047;SDS011;56119;50.118;8.642;2023-06-26T09:38:30;7.47;;;6.13;;
69047;SDS011;56119;50.118;8.642;2023-06-26T09:40:56;9.07;;;6.45;;
69047;SDS011;56119;50.118;8.642;2023-06-26T09:43:22;9.25;;;6.25;;
69047;SDS011;56119;50.118;8.642;2023-06-26T09:45:48;14.38;;;6.93;;
69047;SDS011;56119;50.118;8.642;2023-06-26T09:48:14;9.35;;;7.57;;
69047;SDS011;56119;50.118;8.642;2023-06-26T09:50:42;8.60;;;6.57;;
69047;SDS011;56119;50.118;8.642;2023-06-26T09:53:08;8.52;;;6.78;;
69047;SDS011;56119;50.118;8.642;2023-06-26T09:55:35;7.60;;;5.63;;
69047;SDS011;56119;50.118;8.642;2023-06-26T09:58:05;7.45;;;5.55;;
69047;SDS011;56119;50.118;8.642;2023-06-26T10:00:31;7.55;;;6.40;;
69047;SDS011;56119;50.118;8.642;2023-06-26T10:03:00;6.65;;;5.75;;
69047;SDS011;56119;50.118;8.642;2023-06-26T10:05:26;9.00;;;6.60;;
69047;SDS011;56119;50.118;8.642;2023-06-26T10:07:53;12.07;;;6.20;;
69047;SDS011;56119;50.118;8.642;2023-06-26T10:10:20;7.30;;;6.47;;
69047;SDS011;56119;50.118;8.642;2023-06-26T10:12:48;6.95;;;6.25;;
69047;SDS011;56119;50.118;8.642;2023-06-26T10:15:14;9.68;;;6.68;;
69047;SDS011;56119;50.118;8.642;2023-06-26T10:17:42;10.27;;;6.57;;
69047;SDS011;56119;50.118;8.642;2023-06-26T10:20:08;10.10;;;6.53;;
69047;SDS011;56119;50.118;8.642;2023-06-26T10:22:36;10.68;;;6.10;;
69047;SDS011;56119;50.118;8.642;2023-06-26T10:25:03;8.32;;;5.97;;
69047;SDS011;56119;50.118;8.642;2023-06-26T10:27:34;6.88;;;6.00;;
69047;SDS011;56119;50.118;8.642;2023-06-26T10:30:03;7.85;;;6.18;;
69047;SDS011;56119;50.118;8.642;2023-06-26T10:32:30;9.02;;;5.65;;
69047;SDS011;56119;50.118;8.642;2023-06-26T10:34:56;8.48;;;6.05;;
69047;SDS011;56119;50.118;8.642;2023-06-26T10:40:09;6.70;;;5.72;;
69047;SDS011;56119;50.118;8.642;2023-06-26T10:42:36;9.27;;;5.40;;
69047;SDS011;56119;50.118;8.642;2023-06-26T10:45:08;6.85;;;5.30;;
69047;SDS011;56119;50.118;8.642;2023-06-26T10:47:36;8.90;;;5.57;;
69047;SDS011;56119;50.118;8.642;2023-06-26T10:55:32;9.43;;;6.13;;
69047;SDS011;56119;50.118;8.642;2023-06-26T10:57:58;10.15;;;6.20;;
69047;SDS011;56119;50.118;8.642;2023-06-26T11:00:24;7.75;;;5.70;;
69047;SDS011;56119;50.118;8.642;2023-06-26T11:02:50;9.63;;;7.07;;
69047;SDS011;56119;50.118;8.642;2023-06-26T11:05:29;10.90;;;6.70;;
69047;SDS011;56119;50.118;8.642;2023-06-26T11:08:07;7.40;;;5.32;;
69047;SDS011;56119;50.118;8.642;2023-06-26T11:10:52;7.95;;;6.55;;
69047;SDS011;56119;50.118;8.642;2023-06-26T11:13:19;7.20;;;5.30;;
69047;SDS011;56119;50.118;8.642;2023-06-26T11:15:46;7.32;;;6.55;;
69047;SDS011;56119;50.118;8.642;2023-06-26T11:18:12;7.93;;;6.20;;
69047;SDS011;56119;50.118;8.642;2023-06-26T11:20:39;7.50;;;6.30;;
69047;SDS011;56119;50.118;8.642;2023-06-26T11:23:05;10.73;;;6.55;;
69047;SDS011;56119;50.118;8.642;2023-06-26T11:25:36;10.82;;;6.22;;
69047;SDS011;56119;50.118;8.642;2023-06-26T11:28:09;7.90;;;6.07;;
69047;SDS011;56119;50.118;8.642;2023-06-26T11:30:36;6.47;;;5.55;;
69047;SDS011;56119;50.118;8.642;2023-06-26T11:33:02;7.82;;;5.93;;
69047;SDS011;56119;50.118;8.642;2023-06-26T11:35:29;7.35;;;6.18;;
69047;SDS011;56119;50.118;8.642;2023-06-26T11:38:04;9.77;;;6.75;;
69047;SDS011;56119;50.118;8.642;2023-06-26T11:40:34;7.35;;;5.55;;
69047;SDS011;56119;50.118;8.642;2023-06-26T11:43:00;8.13;;;5.38;;
69047;SDS011;56119;50.118;8.642;2023-06-26T11:45:28;9.30;;;7.22;;
69047;SDS011;56119;50.118;8.642;2023-06-26T11:47:55;10.30;;;6.82;;
69047;SDS011;56119;50.118;8.642;2023-06-26T11:50:21;7.53;;;6.10;;
69047;SDS011;56119;50.118;8.642;2023-06-26T11:52:57;9.73;;;5.93;;
69047;SDS011;56119;50.118;8.642;2023-06-26T11:55:23;9.75;;;6.07;;
69047;SDS011;56119;50.118;8.642;2023-06-26T11:57:50;6.53;;;5.55;;
69047;SDS011;56119;50.118;8.642;2023-06-26T12:00:16;8.95;;;6.40;;
69047;SDS011;56119;50.118;8.642;2023-06-26T12:02:44;8.35;;;5.45;;
69047;SDS011;56119;50.118;8.642;2023-06-26T12:05:11;7.03;;;5.22;;
69047;SDS011;56119;50.118;8.642;2023-06-26T12:07:37;9.80;;;6.53;;
69047;SDS011;56119;50.118;8.642;2023-06-26T12:10:03;12.70;;;6.95;;
69047;SDS011;56119;50.118;8.642;2023-06-26T12:12:30;9.45;;;6.88;;
69047;SDS011;56119;50.118;8.642;2023-06-26T12:14:56;8.27;;;5.75;;
69047;SDS011;56119;50.118;8.642;2023-06-26T12:17:23;6.63;;;5.55;;
69047;SDS011;56119;50.118;8.642;2023-06-26T12:19:50;7.85;;;6.15;;
69047;SDS011;56119;50.118;8.642;2023-06-26T12:22:16;8.50;;;6.35;;
69047;SDS011;56119;50.118;8.642;2023-06-26T12:24:43;6.03;;;5.22;;
69047;SDS011;56119;50.118;8.642;2023-06-26T12:27:09;7.43;;;6.05;;
69047;SDS011;56119;50.118;8.642;2023-06-26T12:29:36;8.38;;;6.50;;
69047;SDS011;56119;50.118;8.642;2023-06-26T12:32:02;7.20;;;5.35;;
69047;SDS011;56119;50.118;8.642;2023-06-26T12:36:59;10.30;;;7.25;;
69047;SDS011;56119;50.118;8.642;2023-06-26T12:39:25;11.75;;;6.93;;
69047;SDS011;56119;50.118;8.642;2023-06-26T12:41:57;8.18;;;5.75;;
69047;SDS011;56119;50.118;8.642;2023-06-26T12:44:27;6.13;;;5.18;;
69047;SDS011;56119;50.118;8.642;2023-06-26T12:46:57;7.65;;;5.68;;
69047;SDS011;56119;50.118;8.642;2023-06-26T12:49:36;7.85;;;6.03;;
69047;SDS011;56119;50.118;8.642;2023-06-26T12:52:05;7.05;;;5.50;;
69047;SDS011;56119;50.118;8.642;2023-06-26T12:54:32;8.35;;;5.40;;
69047;SDS011;56119;50.118;8.642;2023-06-26T12:56:59;7.50;;;5.80;;
69047;SDS011;56119;50.118;8.642;2023-06-26T12:59:24;10.07;;;6.40;;
69047;SDS011;56119;50.118;8.642;2023-06-26T13:01:50;8.43;;;5.57;;
69047;SDS011;56119;50.118;8.642;2023-06-26T13:04:17;13.32;;;6.35;;
69047;SDS011;56119;50.118;8.642;2023-06-26T13:06:43;14.18;;;5.82;;
69047;SDS011;56119;50.118;8.642;2023-06-26T13:09:09;9.18;;;5.93;;
69047;SDS011;56119;50.118;8.642;2023-06-26T13:11:35;9.07;;;6.10;;
69047;SDS011;56119;50.118;8.642;2023-06-26T13:14:01;10.77;;;5.97;;
69047;SDS011;56119;50.118;8.642;2023-06-26T13:16:28;6.65;;;4.95;;
69047;SDS011;56119;50.118;8.642;2023-06-26T13:18:54;9.73;;;5.47;;
69047;SDS011;56119;50.118;8.642;2023-06-26T13:21:21;9.38;;;5.82;;
69047;SDS011;56119;50.118;8.642;2023-06-26T13:23:47;6.65;;;5.10;;
69047;SDS011;56119;50.118;8.642;2023-06-26T13:26:13;8.02;;;5.60;;
69047;SDS011;56119;50.118;8.642;2023-06-26T13:28:39;7.03;;;5.18;;
69047;SDS011;56119;50.118;8.642;2023-06-26T13:31:05;7.82;;;4.55;;
69047;SDS011;56119;50.118;8.642;2023-06-26T13:33:31;7.95;;;4.60;;
69047;SDS011;56119;50.118;8.642;2023-06-26T13:35:57;8.93;;;4.50;;
69047;SDS011;56119;50.118;8.642;2023-06-26T13:38:23;7.50;;;4.40;;
69047;SDS011;56119;50.118;8.642;2023-06-26T13:40:50;7.63;;;5.20;;
69047;SDS011;56119;50.118;8.642;2023-06-26T13:43:16;6.40;;;4.68;;
69047;SDS011;56119;50.118;8.642;2023-06-26T13:45:42;8.07;;;4.90;;
69047;SDS011;56119;50.118;8.642;2023-06-26T13:48:08;8.32;;;4.57;;
69047;SDS011;56119;50.118;8.642;2023-06-26T13:50:34;10.30;;;5.10;;
69047;SDS011;56119;50.118;8.642;2023-06-26T13:53:00;11.98;;;4.68;;
69047;SDS011;56119;50.118;8.642;2023-06-26T13:55:27;6.35;;;4.45;;
69047;SDS011;56119;50.118;8.642;2023-06-26T13:57:53;9.23;;;4.20;;
69047;SDS011;56119;50.118;8.642;2023-06-26T14:00:19;6.10;;;4.40;;
69047;SDS011;56119;50.118;8.642;2023-06-26T14:02:47;7.47;;;3.72;;
69047;SDS011;56119;50.118;8.642;2023-06-26T14:05:12;8.23;;;4.13;;
69047;SDS011;56119;50.118;8.642;2023-06-26T14:07:39;5.82;;;4.10;;
69047;SDS011;56119;50.118;8.642;2023-06-26T14:10:05;6.70;;;4.00;;
69047;SDS011;56119;50.118;8.642;2023-06-26T14:12:31;6.03;;;3.00;;
69047;SDS011;56119;50.118;8.642;2023-06-26T14:14:58;8.25;;;3.20;;
69047;SDS011;56119;50.118;8.642;2023-06-26T14:17:24;7.32;;;3.33;;
69047;SDS011;56119;50.118;8.642;2023-06-26T14:19:50;8.07;;;3.78;;
69047;SDS011;56119;50.118;8.642;2023-06-26T14:22:17;5.32;;;3.30;;
69047;SDS011;56119;50.118;8.642;2023-06-26T14:24:43;5.07;;;2.75;;
69047;SDS011;56119;50.118;8.642;2023-06-26T14:27:09;8.80;;;3.40;;
69047;SDS011;56119;50.118;8.642;2023-06-26T14:29:35;7.18;;;3.42;;
69047;SDS011;56119;50.118;8.642;2023-06-26T14:32:02;5.53;;;3.20;;
69047;SDS011;56119;50.118;8.642;2023-06-26T14:34:28;3.40;;;2.60;;
69047;SDS011;56119;50.118;8.642;2023-06-26T14:36:54;4.88;;;3.30;;
69047;SDS011;56119;50.118;8.642;2023-06-26T14:39:20;7.43;;;2.83;;
69047;SDS011;56119;50.118;8.642;2023-06-26T14:41:46;9.25;;;3.05;;
69047;SDS011;56119;50.118;8.642;2023-06-26T14:44:13;9.15;;;2.90;;
69047;SDS011;56119;50.118;8.642;2023-06-26T14:46:39;8.40;;;3.08;;
69047;SDS011;56119;50.118;8.642;2023-06-26T14:49:05;6.75;;;2.60;;
69047;SDS011;56119;50.118;8.642;2023-06-26T14:51:31;5.53;;;2.60;;
69047;SDS011;56119;50.118;8.642;2023-06-26T14:53:57;8.07;;;2.63;;
69047;SDS011;56119;50.118;8.642;2023-06-26T14:56:23;11.27;;;2.97;;